cliquez pour ajouter le site Runraid à vos favoris  English version (google)  Retour à l'accueil Ecrire à l'auteur du site Runraid : Michel Jourdan



Les prochaines courses


Les derniers résultats

cliquez pour visualiser la page complète relatant la chronologie des éruptions du Piton de la Fournaise
éruptions Piton de la Fournaise


Ile de La Réunion

 Diagonale des Fous 

Ecrire au créateur du site : Michel Jourdan
Contact


2013-04-28 - Trail des Tamarins

Pour consulter le palmarès d'un coureur, un clic sur son nom !

Vous avez des remarques, corrections, ... sur ces résultats , un clic sur --> pour me transmettre toute information concernant les classements


Trail des Tamarins - 2013 : classement des 136 finishers
Place Nom Temps Cat. Club Sexe Clt/cat.
Place Nom Temps Cat. Club Sexe Clt/cat.
1 BARENCOURT Fabrice 02:14:17 SEM - M 0
2 DALY ERRAYA Frederic 02:33:14 SEM - M 0
3 ROBERT Martini 02:33:20 V1M - M 1er V1M 0
4 FONTANA Arnaud 02:33:52 V2M - M 1er V2M 0
5 LAUDE Michel 02:36:31 V1M - M 2eme V1M 0
6 NAGAMA Yolain 02:37:10 V1M - M 3eme V1M 0
7 LAPIERRE Alexandre 02:39:35 SEM - M 0
8 MOUGEY Luc 02:44:44 V1M - M 0
9 FELICITE Jean Francois 02:44:58 SEM - M 0
10 KONDOKI Judex 02:45:13 V1M - M 0
11 CADARSI Alain 02:45:48 V2M - M 2eme V2M 0
12 LAHIRE Michel 02:46:32 SEM - M 0
13 POTER Thierry 02:46:45 V1M - M 0
14 GUIRONNET Sebastien 02:47:29 SEM - M 0
15 COUTEYEN CARPAYE Fabrice 02:48:23 SEM - M 0
16 HUET Rene Pierre 02:50:40 SEM - M 0
17 NIRLO Jean David 02:50:46 SEM - M 0
18 TURPIN Bertrand 02:53:53 SEM - M 0
19 MOIMBA Max 02:53:58 SEM - M 0
20 ASSANI Georges 02:54:12 V1M - M 0
21 METANIRE David 02:54:40 V1M - M 0
22 DARTY Gilles 03:00:02 SEM - M 0
23 TISARIA Jean Rico 03:00:13 V1M - M 0
24 MITHRIDATE Jimmy 03:01:55 SEM - M 0
25 ESPERANCE Fabrice 03:02:17 V1M - M 0
26 FLOCH Patrice 03:02:20 V1M - M 0
27 PELCHY Johan 03:03:04 V1M - M 0
28 LAHAYE Yves 03:03:24 V1M - M 0
29 LEBON Eric 03:06:36 V2M - M 3eme V2M 0
30 LEFEVRE Axel Jean raymond 03:07:23 V1M - M 0
31 SOUBOU Richelet 03:07:41 V1M - M 0
32 AURE Yvon 03:10:26 V2M - M 0
33 LUCAS Jean Louis 03:10:38 V1M - M 0
34 TECHER Johnny 03:11:02 V1M - M 0
35 ALAISE Jean Olivier 03:11:15 V1M - M 0
36 LESCUREUX Cyril 03:11:18 SEM - M 0
37 DIFRANCIA Marc 03:11:24 V2M - M 0
38 PIGNOLET Junot 03:11:33 V1M - M 0
39 LABBE Georges Marie 03:12:11 V1M - M 0
40 SINAMA Henri Claude 03:12:49 SEM - M 0
41 LE BIHAN Gwenael 03:13:05 V1M - M 0
42 ERUDEL Mickael 03:13:36 V1M - M 0
43 ENGUEHARD Michel 03:14:32 V1M - M 0
44 CAROFF Philippe 03:16:31 V2M - M 0
45 MARIE MARTHE Bernard 03:16:42 SEM - M 0
46 JUCOURT Patrick 03:16:47 V1M - M 0
47 BENTALEB Dalila 03:16:54 V1F - F 1ere F 0
48 GRONDIN Joseph 03:17:37 V1M - M 0
49 SOMNICA Jean Alain 03:18:25 V1M - M 0
50 GELLY Christophe 03:20:43 V2M - M 0
51 JEAN Escalon 03:21:54 SEM - M 0
52 LAURET Eric 03:22:05 SEM - M 0
53 LON MON POY Eric 03:22:50 V1M - M 0
54 JOURDIN Sylvain 03:23:41 SEM - M 0
55 TORINIERE Richemond 03:26:50 V2M - M 0
56 HUET Jean Michel 03:27:36 V2M - M 0
57 MAILLOT Aldo Maurice 03:27:47 V1M - M 0
58 GUNEPIN Marc 03:30:04 V1M - M 0
59 GAGE Patrice 03:31:11 SEM - M 0
60 YOUSSOUF Mohamed 03:31:20 SEM - M 0
61 FIGUIN Jean Pierre 03:31:22 V1M - M 0
62 JULIE Dominique 03:31:33 SEM - M 0
63 CHELLEMBRUN Jocelyne 03:32:32 V1F - F 2eme F 0
64 BASQUAISE Anne Sophie 03:32:54 V1F - F 3eme F 0
65 RACINE Gilbert 03:32:56 V1M - M 0
66 JACOB Alain 03:34:16 V1M - M 0
67 ROGER Pascal 03:35:48 V2M - M 0
68 AURE Patrick 03:36:11 V1M - M 0
69 SAVAJOLS Benoit 03:37:59 SEM - M 0
70 LUSINIER Leonus 03:40:23 V2M - M 0
71 ARAUX Michael 03:41:15 SEM - M 0
72 HOAREAU Roger 03:44:25 V2M - M 0
73 MAZEAU Fabrice 03:45:44 SEM - M 0
74 HAUDEGOND Etienne 03:45:46 V1M - M 0
75 HOAREAU Christophe 03:45:48 V1M - M 0
76 JAYME Patrick 03:45:49 V1M - M 0
77 LAUMIER Alexis 03:46:51 SEM - M 0
78 KLEIN Danielle 03:47:24 V2F - F 4eme F - 1ere V2 0
79 MARIE MARTHE Rejane 03:47:30 SEF - F 5eme F 0
80 BELLON Marie Ange 03:48:38 V2F - F 0
81 MOREL Rene Nathan 03:49:12 V2M - M 0
82 TRIVY Jean Marie 03:49:52 V1M - M 0
83 LACONI Jean Pierre 03:50:10 V2M - M 0
84 SOOPIN Ghislaine 03:51:14 SEF - F 0
85 HAMILCARO Jean Francois 03:51:19 V1M - M 0
86 LEONARD Aymeric 03:53:15 SEM - M 0
87 LYNAM David 03:54:09 SEM - M 0
88 KOPINA Florient 03:54:44 SEM - M 0
89 BOISSEAU Bertrand 03:55:36 V2M - M 0
90 DEVIENNE Gregory 03:56:39 V1M - M 0
91 CASTRO Jacky 03:57:30 V1M - M 0
92 ALAMY Laurent 03:58:10 SEM - M 0
93 PAYET Benjamin 04:09:21 V1M - M 0
94 LYNAM Eric 04:09:37 V3M - M 1er V3M 0
95 COUZIN David 04:10:12 SEM - M 0
96 AURE Fabrice 04:11:23 V1M - M 0
97 VIRASSAMY Jorene 04:12:28 V1F - F 0
98 TOINETTE Philippe 04:12:36 V1M - M 0
99 FRANCO Christophe 04:15:15 V1M - M 0
100 BASQUAISE Sonia 04:16:44 SEF - F 0
101 MARTIN Benoit 04:17:22 SEM - M 0
102 MARTIN Sebastien 04:17:33 SEM - M 0
103 BARON Basile 04:17:39 SEM - M 0
104 DEVIDAL Aurelie 04:20:38 SEF - F 0
105 DECORME Celine 04:20:40 SEF - F 0
106 AROUMOUGOM Christophe 04:21:05 V1M - M 0
107 IRSAPOULLE Elsie 04:21:27 SEF - F 0
108 DELOOR Vincent 04:21:31 SEM - M 0
109 SOUPRAYEN Hilda 04:22:51 V1F - F 0
110 HADDAD Joseph 04:22:54 V2M - M 0
111 SOLON Johan Jean 04:26:43 SEM - M 0
112 CADALEN Franck 04:29:35 SEM - M 0
113 BOYER David 04:29:47 SEM - M 0
114 BIGOT Daniel 04:29:51 V3M - M 2eme V3M 0
115 MARTIN Jean Luc 04:31:47 V2M - M 0
116 MALATEMME Diane 04:32:55 V1F - F 0
117 GUENON Marie 04:41:06 SEF - F 0
118 MAYEN Regis 04:41:59 V1M - M 0
119 HOAREAU Marie France 04:46:10 SEF - F 0
120 AHO Marie Helene 04:46:36 V3F - F 0
121 ANDRE Helene 04:46:51 V2F - F 0
122 MAZURET Laurence 04:51:14 SEF - F 0
123 BONNEAU Oriane 04:51:17 SEF - F 0
124 SINAMA Jean Michel 04:51:20 V2M - M 0
125 HOAREAU Marie Line 04:57:48 V3F - F 0
126 BIGOT Lucie 04:58:15 V3F - F 0
127 REFALO Stephane 05:09:02 SEM - M 0
128 LEVESQUE MYRIAM 05:14:23 V2F - F 0
129 LEVESQUE Denis 05:14:25 V2M - M 0
130 ACHERITEGUY Marion 05:16:48 V1F - F 0
131 SCHEIDER Christine 05:16:50 V1F - F 0
132 JARLET Benedicte 05:17:29 V2F - F 0
133 BERTOLOTTI Francoise 05:17:33 V3F - F 0
134 PAJINADON Juliane 05:22:06 V2F - F 0
135 LICCIARDI Severine 05:34:28 SEF - F 0
136 MAILLOT Nicolas 05:39:42 SEM - M 0


ReferencementCe site est listé dans la catégorie Sport : Sports extrêmes Dictionnaire
| Accueil | La Réunion  Vue du ciel | Météo | Cyclones | Volcan | Cirques de Mafate , Cilaos , Salazie | Photos Randonnées | Randonnées Réunion: Randos Espiègle , Courses montagne | Diagonale des Fous |  Marathon des Sables | Voyages Les stats du site | Fonds écran | Plan du site | Blog de runraid | Galerie photos Sport Réunion |